sensor_id;sensor_type;location;lat;lon;timestamp;pressure;altitude;pressure_sealevel;temperature;humidity
41218;BME280;26950;50.960;7.138;2023-04-19T00:00:43;101526.06;;;15.89;48.50
41218;BME280;26950;50.960;7.138;2023-04-19T00:03:10;101526.97;;;15.90;48.46
41218;BME280;26950;50.960;7.138;2023-04-19T00:05:36;101527.59;;;16.21;47.80
41218;BME280;26950;50.960;7.138;2023-04-19T00:08:04;101522.38;;;15.81;48.49
41218;BME280;26950;50.960;7.138;2023-04-19T00:10:30;101524.69;;;16.08;48.03
41218;BME280;26950;50.960;7.138;2023-04-19T00:12:58;101516.75;;;16.08;48.10
41218;BME280;26950;50.960;7.138;2023-04-19T00:15:24;101522.38;;;16.24;48.02
41218;BME280;26950;50.960;7.138;2023-04-19T00:17:52;101517.97;;;16.24;48.09
41218;BME280;26950;50.960;7.138;2023-04-19T00:20:19;101515.31;;;16.24;47.93
41218;BME280;26950;50.960;7.138;2023-04-19T00:22:46;101514.31;;;16.17;48.30
41218;BME280;26950;50.960;7.138;2023-04-19T00:25:12;101517.72;;;16.12;48.36
41218;BME280;26950;50.960;7.138;2023-04-19T00:27:39;101507.09;;;16.10;48.67
41218;BME280;26950;50.960;7.138;2023-04-19T00:30:06;101510.00;;;16.23;48.30
41218;BME280;26950;50.960;7.138;2023-04-19T00:32:33;101511.88;;;16.30;48.27
41218;BME280;26950;50.960;7.138;2023-04-19T00:35:01;101512.88;;;16.35;48.11
41218;BME280;26950;50.960;7.138;2023-04-19T00:37:28;101509.13;;;16.24;48.29
41218;BME280;26950;50.960;7.138;2023-04-19T00:39:54;101514.69;;;15.92;49.38
41218;BME280;26950;50.960;7.138;2023-04-19T00:42:20;101506.38;;;16.19;48.69
41218;BME280;26950;50.960;7.138;2023-04-19T00:44:47;101503.00;;;16.28;48.36
41218;BME280;26950;50.960;7.138;2023-04-19T00:47:13;101503.06;;;16.31;48.25
41218;BME280;26950;50.960;7.138;2023-04-19T00:49:40;101508.88;;;16.10;49.19
41218;BME280;26950;50.960;7.138;2023-04-19T00:52:08;101494.69;;;16.08;49.11
41218;BME280;26950;50.960;7.138;2023-04-19T00:54:35;101499.31;;;16.19;48.62
41218;BME280;26950;50.960;7.138;2023-04-19T00:57:03;101498.38;;;16.16;48.92
41218;BME280;26950;50.960;7.138;2023-04-19T00:59:29;101495.81;;;16.21;48.94
41218;BME280;26950;50.960;7.138;2023-04-19T01:01:56;101499.31;;;16.19;48.90
41218;BME280;26950;50.960;7.138;2023-04-19T01:04:22;101498.66;;;15.86;49.74
41218;BME280;26950;50.960;7.138;2023-04-19T01:06:49;101503.13;;;15.90;49.73
41218;BME280;26950;50.960;7.138;2023-04-19T01:09:17;101484.84;;;16.02;49.52
41218;BME280;26950;50.960;7.138;2023-04-19T01:11:44;101488.59;;;16.12;49.24
41218;BME280;26950;50.960;7.138;2023-04-19T01:14:10;101489.19;;;15.97;50.07
41218;BME280;26950;50.960;7.138;2023-04-19T01:16:37;101488.56;;;16.10;49.62
41218;BME280;26950;50.960;7.138;2023-04-19T01:19:04;101489.25;;;16.00;49.79
41218;BME280;26950;50.960;7.138;2023-04-19T01:21:30;101493.75;;;16.04;49.71
41218;BME280;26950;50.960;7.138;2023-04-19T01:23:58;101491.88;;;16.00;49.91
41218;BME280;26950;50.960;7.138;2023-04-19T01:26:25;101483.50;;;16.23;49.20
41218;BME280;26950;50.960;7.138;2023-04-19T01:28:51;101489.34;;;16.05;49.87
41218;BME280;26950;50.960;7.138;2023-04-19T01:31:17;101488.38;;;16.01;50.33
41218;BME280;26950;50.960;7.138;2023-04-19T01:33:44;101481.38;;;16.03;50.03
41218;BME280;26950;50.960;7.138;2023-04-19T01:36:10;101477.03;;;16.08;49.95
41218;BME280;26950;50.960;7.138;2023-04-19T01:38:37;101471.94;;;16.17;49.79
41218;BME280;26950;50.960;7.138;2023-04-19T01:41:05;101473.84;;;15.81;50.62
41218;BME280;26950;50.960;7.138;2023-04-19T01:43:32;101475.75;;;15.86;50.74
41218;BME280;26950;50.960;7.138;2023-04-19T01:45:58;101470.94;;;16.12;49.78
41218;BME280;26950;50.960;7.138;2023-04-19T01:48:25;101474.47;;;16.13;49.74
41218;BME280;26950;50.960;7.138;2023-04-19T01:50:51;101468.44;;;15.75;50.94
41218;BME280;26950;50.960;7.138;2023-04-19T01:53:17;101468.94;;;15.99;50.69
41218;BME280;26950;50.960;7.138;2023-04-19T01:55:44;101464.31;;;15.89;50.93
41218;BME280;26950;50.960;7.138;2023-04-19T01:58:12;101460.78;;;15.88;50.87
41218;BME280;26950;50.960;7.138;2023-04-19T02:00:38;101466.09;;;15.90;50.88
41218;BME280;26950;50.960;7.138;2023-04-19T02:03:05;101463.69;;;16.02;50.66
41218;BME280;26950;50.960;7.138;2023-04-19T02:05:31;101460.91;;;15.96;50.61
41218;BME280;26950;50.960;7.138;2023-04-19T02:07:58;101465.94;;;15.82;51.07
41218;BME280;26950;50.960;7.138;2023-04-19T02:10:25;101453.84;;;15.53;51.67
41218;BME280;26950;50.960;7.138;2023-04-19T02:12:52;101455.63;;;15.96;50.93
41218;BME280;26950;50.960;7.138;2023-04-19T02:15:20;101451.41;;;16.06;50.57
41218;BME280;26950;50.960;7.138;2023-04-19T02:17:46;101448.78;;;16.07;50.55
41218;BME280;26950;50.960;7.138;2023-04-19T02:20:12;101452.41;;;16.12;50.57
41218;BME280;26950;50.960;7.138;2023-04-19T02:22:39;101457.78;;;16.17;50.61
41218;BME280;26950;50.960;7.138;2023-04-19T02:25:06;101460.44;;;16.17;50.58
41218;BME280;26950;50.960;7.138;2023-04-19T02:27:32;101461.25;;;16.14;50.72
41218;BME280;26950;50.960;7.138;2023-04-19T02:29:59;101449.56;;;16.02;50.86
41218;BME280;26950;50.960;7.138;2023-04-19T02:32:27;101455.81;;;16.07;50.71
41218;BME280;26950;50.960;7.138;2023-04-19T02:34:53;101461.94;;;15.59;51.99
41218;BME280;26950;50.960;7.138;2023-04-19T02:37:20;101452.94;;;15.93;51.31
41218;BME280;26950;50.960;7.138;2023-04-19T02:39:46;101450.25;;;15.91;51.19
41218;BME280;26950;50.960;7.138;2023-04-19T02:42:13;101455.78;;;16.04;51.00
41218;BME280;26950;50.960;7.138;2023-04-19T02:44:40;101448.88;;;15.67;52.52
41218;BME280;26950;50.960;7.138;2023-04-19T02:47:06;101459.25;;;16.01;51.26
41218;BME280;26950;50.960;7.138;2023-04-19T02:49:34;101448.78;;;16.09;51.32
41218;BME280;26950;50.960;7.138;2023-04-19T02:52:02;101449.72;;;16.09;50.90
41218;BME280;26950;50.960;7.138;2023-04-19T02:54:28;101454.16;;;16.10;51.01
41218;BME280;26950;50.960;7.138;2023-04-19T02:56:55;101451.53;;;16.12;51.49
41218;BME280;26950;50.960;7.138;2023-04-19T02:59:21;101452.38;;;16.11;51.49
41218;BME280;26950;50.960;7.138;2023-04-19T03:01:48;101453.19;;;16.08;51.19
41218;BME280;26950;50.960;7.138;2023-04-19T03:04:14;101453.19;;;16.08;51.23
41218;BME280;26950;50.960;7.138;2023-04-19T03:06:42;101452.28;;;16.06;51.36
41218;BME280;26950;50.960;7.138;2023-04-19T03:09:09;101452.25;;;16.03;51.41
41218;BME280;26950;50.960;7.138;2023-04-19T03:11:35;101450.44;;;16.02;51.45
41218;BME280;26950;50.960;7.138;2023-04-19T03:14:02;101446.91;;;16.02;51.43
41218;BME280;26950;50.960;7.138;2023-04-19T03:16:29;101442.56;;;16.04;51.43
41218;BME280;26950;50.960;7.138;2023-04-19T03:18:55;101449.31;;;15.89;51.86
41218;BME280;26950;50.960;7.138;2023-04-19T03:21:22;101445.16;;;16.02;51.52
41218;BME280;26950;50.960;7.138;2023-04-19T03:23:52;101440.41;;;15.84;51.88
41218;BME280;26950;50.960;7.138;2023-04-19T03:26:19;101438.81;;;15.93;51.80
41218;BME280;26950;50.960;7.138;2023-04-19T03:28:45;101433.53;;;15.94;51.80
41218;BME280;26950;50.960;7.138;2023-04-19T03:31:12;101433.50;;;15.93;51.72
41218;BME280;26950;50.960;7.138;2023-04-19T03:33:39;101432.38;;;15.80;52.27
41218;BME280;26950;50.960;7.138;2023-04-19T03:36:06;101439.50;;;15.84;52.01
41218;BME280;26950;50.960;7.138;2023-04-19T03:38:32;101434.94;;;15.77;52.26
41218;BME280;26950;50.960;7.138;2023-04-19T03:41:00;101425.19;;;15.73;52.58
41218;BME280;26950;50.960;7.138;2023-04-19T03:43:26;101434.00;;;15.72;52.46
41218;BME280;26950;50.960;7.138;2023-04-19T03:45:53;101427.72;;;15.67;52.93
41218;BME280;26950;50.960;7.138;2023-04-19T03:48:19;101441.00;;;15.70;53.25
41218;BME280;26950;50.960;7.138;2023-04-19T03:50:46;101434.53;;;15.57;53.49
41218;BME280;26950;50.960;7.138;2023-04-19T03:53:12;101432.91;;;15.63;53.58
41218;BME280;26950;50.960;7.138;2023-04-19T03:55:38;101440.09;;;15.69;53.26
41218;BME280;26950;50.960;7.138;2023-04-19T03:58:06;101437.41;;;15.66;53.47
41218;BME280;26950;50.960;7.138;2023-04-19T04:00:34;101437.16;;;15.55;53.82
41218;BME280;26950;50.960;7.138;2023-04-19T04:03:01;101436.88;;;15.42;54.10
41218;BME280;26950;50.960;7.138;2023-04-19T04:05:28;101436.16;;;15.52;53.91
41218;BME280;26950;50.960;7.138;2023-04-19T04:07:54;101441.53;;;15.53;54.13
41218;BME280;26950;50.960;7.138;2023-04-19T04:10:21;101438.63;;;15.43;54.32
41218;BME280;26950;50.960;7.138;2023-04-19T04:12:48;101436.84;;;15.40;54.70
41218;BME280;26950;50.960;7.138;2023-04-19T04:15:16;101435.44;;;15.17;55.27
41218;BME280;26950;50.960;7.138;2023-04-19T04:17:43;101435.56;;;15.23;54.99
41218;BME280;26950;50.960;7.138;2023-04-19T04:20:10;101431.44;;;15.35;54.80
41218;BME280;26950;50.960;7.138;2023-04-19T04:22:39;101429.59;;;15.33;54.69
41218;BME280;26950;50.960;7.138;2023-04-19T04:25:06;101434.09;;;15.37;54.89
41218;BME280;26950;50.960;7.138;2023-04-19T04:27:33;101437.19;;;15.16;55.15
41218;BME280;26950;50.960;7.138;2023-04-19T04:30:00;101432.06;;;15.24;55.13
41218;BME280;26950;50.960;7.138;2023-04-19T04:32:28;101429.84;;;15.44;54.39
41218;BME280;26950;50.960;7.138;2023-04-19T04:34:55;101435.84;;;15.35;54.56
41218;BME280;26950;50.960;7.138;2023-04-19T04:37:21;101439.00;;;15.19;55.09
41218;BME280;26950;50.960;7.138;2023-04-19T04:39:48;101438.25;;;15.24;55.12
41218;BME280;26950;50.960;7.138;2023-04-19T04:42:14;101440.91;;;15.26;55.15
41218;BME280;26950;50.960;7.138;2023-04-19T04:44:41;101435.84;;;15.35;54.72
41218;BME280;26950;50.960;7.138;2023-04-19T04:47:09;101439.53;;;15.43;54.38
41218;BME280;26950;50.960;7.138;2023-04-19T04:49:37;101433.41;;;15.46;54.36
41218;BME280;26950;50.960;7.138;2023-04-19T04:52:03;101418.00;;;15.26;54.73
41218;BME280;26950;50.960;7.138;2023-04-19T04:54:30;101426.06;;;15.32;54.29
41218;BME280;26950;50.960;7.138;2023-04-19T04:56:57;101433.56;;;15.13;54.55
41218;BME280;26950;50.960;7.138;2023-04-19T04:59:24;101416.13;;;15.21;54.30
41218;BME280;26950;50.960;7.138;2023-04-19T05:01:50;101436.91;;;15.04;54.62
41218;BME280;26950;50.960;7.138;2023-04-19T05:04:17;101437.34;;;15.24;54.44
41218;BME280;26950;50.960;7.138;2023-04-19T05:06:45;101427.81;;;15.32;53.61
41218;BME280;26950;50.960;7.138;2023-04-19T05:09:11;101426.91;;;15.30;53.81
41218;BME280;26950;50.960;7.138;2023-04-19T05:11:38;101428.56;;;15.25;53.68
41218;BME280;26950;50.960;7.138;2023-04-19T05:14:04;101422.72;;;15.00;54.67
41218;BME280;26950;50.960;7.138;2023-04-19T05:16:31;101431.19;;;15.23;53.80
41218;BME280;26950;50.960;7.138;2023-04-19T05:18:58;101428.69;;;15.31;53.27
41218;BME280;26950;50.960;7.138;2023-04-19T05:21:24;101428.41;;;15.19;53.48
41218;BME280;26950;50.960;7.138;2023-04-19T05:23:52;101426.38;;;15.05;53.65
41218;BME280;26950;50.960;7.138;2023-04-19T05:26:19;101424.25;;;15.28;53.09
41218;BME280;26950;50.960;7.138;2023-04-19T05:28:45;101430.59;;;14.60;54.36
41218;BME280;26950;50.960;7.138;2023-04-19T05:31:12;101416.72;;;15.07;53.28
41218;BME280;26950;50.960;7.138;2023-04-19T05:33:38;101409.00;;;15.17;52.87
41218;BME280;26950;50.960;7.138;2023-04-19T05:36:05;101404.59;;;15.17;52.77
41218;BME280;26950;50.960;7.138;2023-04-19T05:38:32;101413.03;;;15.01;53.07
41218;BME280;26950;50.960;7.138;2023-04-19T05:41:00;101414.28;;;15.17;52.97
41218;BME280;26950;50.960;7.138;2023-04-19T05:43:26;101422.28;;;14.82;53.90
41218;BME280;26950;50.960;7.138;2023-04-19T05:45:53;101408.78;;;15.07;53.12
41218;BME280;26950;50.960;7.138;2023-04-19T05:48:19;101407.28;;;15.19;52.87
41218;BME280;26950;50.960;7.138;2023-04-19T05:50:45;101416.13;;;15.21;52.85
41218;BME280;26950;50.960;7.138;2023-04-19T05:53:12;101420.63;;;15.25;52.60
41218;BME280;26950;50.960;7.138;2023-04-19T05:55:38;101408.44;;;15.33;52.34
41218;BME280;26950;50.960;7.138;2023-04-19T05:58:06;101414.19;;;15.14;52.63
41218;BME280;26950;50.960;7.138;2023-04-19T06:00:33;101413.41;;;15.16;52.71
41218;BME280;26950;50.960;7.138;2023-04-19T06:02:59;101418.19;;;15.34;52.37
41218;BME280;26950;50.960;7.138;2023-04-19T06:05:26;101419.44;;;15.10;52.49
41218;BME280;26950;50.960;7.138;2023-04-19T06:07:52;101421.63;;;15.30;52.13
41218;BME280;26950;50.960;7.138;2023-04-19T06:10:20;101415.53;;;15.34;51.75
41218;BME280;26950;50.960;7.138;2023-04-19T06:12:47;101415.31;;;15.23;51.45
41218;BME280;26950;50.960;7.138;2023-04-19T06:15:14;101401.59;;;15.02;51.77
41218;BME280;26950;50.960;7.138;2023-04-19T06:17:41;101404.75;;;15.25;51.33
41218;BME280;26950;50.960;7.138;2023-04-19T06:20:08;101405.66;;;15.27;51.25
41218;BME280;26950;50.960;7.138;2023-04-19T06:22:41;101405.66;;;15.25;50.96
41218;BME280;26950;50.960;7.138;2023-04-19T06:25:08;101402.44;;;15.40;50.34
41218;BME280;26950;50.960;7.138;2023-04-19T06:27:34;101398.84;;;15.36;50.61
41218;BME280;26950;50.960;7.138;2023-04-19T06:30:01;101410.28;;;15.35;50.76
41218;BME280;26950;50.960;7.138;2023-04-19T06:32:28;101411.19;;;15.37;50.88
41218;BME280;26950;50.960;7.138;2023-04-19T06:34:55;101407.78;;;15.43;50.45
41218;BME280;26950;50.960;7.138;2023-04-19T06:37:22;101415.19;;;15.17;50.80
41218;BME280;26950;50.960;7.138;2023-04-19T06:39:48;101402.44;;;15.40;49.82
41218;BME280;26950;50.960;7.138;2023-04-19T06:42:15;101410.53;;;15.48;49.41
41218;BME280;26950;50.960;7.138;2023-04-19T06:44:43;101417.09;;;15.24;50.20
41218;BME280;26950;50.960;7.138;2023-04-19T06:47:10;101406.09;;;15.04;50.94
41218;BME280;26950;50.960;7.138;2023-04-19T06:49:38;101397.94;;;15.34;50.01
41218;BME280;26950;50.960;7.138;2023-04-19T06:52:04;101412.97;;;15.38;49.88
41218;BME280;26950;50.960;7.138;2023-04-19T06:54:31;101405.50;;;15.18;49.46
41218;BME280;26950;50.960;7.138;2023-04-19T06:56:57;101404.13;;;15.36;49.23
41218;BME280;26950;50.960;7.138;2023-04-19T06:59:23;101403.19;;;15.77;48.27
41218;BME280;26950;50.960;7.138;2023-04-19T07:01:52;101399.44;;;16.12;47.46
41218;BME280;26950;50.960;7.138;2023-04-19T07:04:20;101401.66;;;16.38;46.01
41218;BME280;26950;50.960;7.138;2023-04-19T07:06:48;101391.44;;;17.21;45.33
41218;BME280;26950;50.960;7.138;2023-04-19T07:09:15;101399.09;;;17.68;43.93
41218;BME280;26950;50.960;7.138;2023-04-19T07:11:42;101391.31;;;17.82;42.99
41218;BME280;26950;50.960;7.138;2023-04-19T07:14:08;101393.16;;;17.91;41.85
41218;BME280;26950;50.960;7.138;2023-04-19T07:16:35;101390.63;;;18.01;40.87
41218;BME280;26950;50.960;7.138;2023-04-19T07:19:02;101377.97;;;17.74;41.47
41218;BME280;26950;50.960;7.138;2023-04-19T07:21:28;101384.25;;;17.11;42.13
41218;BME280;26950;50.960;7.138;2023-04-19T07:23:58;101383.56;;;17.27;42.33
41218;BME280;26950;50.960;7.138;2023-04-19T07:26:25;101387.72;;;17.07;41.78
41218;BME280;26950;50.960;7.138;2023-04-19T07:28:51;101378.69;;;16.94;43.08
41218;BME280;26950;50.960;7.138;2023-04-19T07:31:18;101379.34;;;17.42;42.44
41218;BME280;26950;50.960;7.138;2023-04-19T07:33:45;101383.03;;;17.56;41.82
41218;BME280;26950;50.960;7.138;2023-04-19T07:36:11;101378.09;;;17.87;41.01
41218;BME280;26950;50.960;7.138;2023-04-19T07:38:38;101368.22;;;17.76;40.84
41218;BME280;26950;50.960;7.138;2023-04-19T07:41:06;101378.59;;;17.57;40.81
41218;BME280;26950;50.960;7.138;2023-04-19T07:43:33;101375.59;;;17.27;40.70
41218;BME280;26950;50.960;7.138;2023-04-19T07:45:59;101378.63;;;17.60;40.64
41218;BME280;26950;50.960;7.138;2023-04-19T07:48:26;101381.13;;;17.46;40.76
41218;BME280;26950;50.960;7.138;2023-04-19T07:50:52;101371.41;;;17.46;40.61
41218;BME280;26950;50.960;7.138;2023-04-19T07:53:19;101366.53;;;17.83;39.50
41218;BME280;26950;50.960;7.138;2023-04-19T07:55:45;101357.75;;;19.09;38.50
41218;BME280;26950;50.960;7.138;2023-04-19T07:58:13;101362.50;;;20.35;35.99
41218;BME280;26950;50.960;7.138;2023-04-19T08:00:40;101365.88;;;21.23;34.10
41218;BME280;26950;50.960;7.138;2023-04-19T08:03:06;101359.53;;;21.58;32.51
41218;BME280;26950;50.960;7.138;2023-04-19T08:05:33;101358.91;;;20.87;32.61
41218;BME280;26950;50.960;7.138;2023-04-19T08:07:59;101356.97;;;21.24;33.12
41218;BME280;26950;50.960;7.138;2023-04-19T08:10:26;101358.56;;;21.72;32.04
41218;BME280;26950;50.960;7.138;2023-04-19T08:12:54;101358.09;;;22.37;31.02
41218;BME280;26950;50.960;7.138;2023-04-19T08:15:22;101338.66;;;22.16;30.63
41218;BME280;26950;50.960;7.138;2023-04-19T08:17:48;101351.84;;;22.39;30.08
41218;BME280;26950;50.960;7.138;2023-04-19T08:20:15;101352.22;;;22.95;28.97
41218;BME280;26950;50.960;7.138;2023-04-19T08:22:42;101355.31;;;23.30;28.60
41218;BME280;26950;50.960;7.138;2023-04-19T08:25:08;101340.69;;;22.83;29.26
41218;BME280;26950;50.960;7.138;2023-04-19T08:27:35;101344.03;;;23.73;28.23
41218;BME280;26950;50.960;7.138;2023-04-19T08:30:02;101349.34;;;23.08;28.26
41218;BME280;26950;50.960;7.138;2023-04-19T08:32:30;101342.53;;;22.75;28.76
41218;BME280;26950;50.960;7.138;2023-04-19T08:34:57;101337.25;;;23.46;28.60
41218;BME280;26950;50.960;7.138;2023-04-19T08:37:25;101339.09;;;24.04;27.76
41218;BME280;26950;50.960;7.138;2023-04-19T08:39:51;101345.75;;;24.36;26.68
41218;BME280;26950;50.960;7.138;2023-04-19T08:42:18;101337.66;;;24.37;26.59
41218;BME280;26950;50.960;7.138;2023-04-19T08:44:45;101346.75;;;25.24;25.63
41218;BME280;26950;50.960;7.138;2023-04-19T08:47:12;101328.94;;;25.99;24.27
41218;BME280;26950;50.960;7.138;2023-04-19T08:49:41;101325.28;;;26.72;23.78
41218;BME280;26950;50.960;7.138;2023-04-19T08:52:11;101329.69;;;27.66;22.32
41218;BME280;26950;50.960;7.138;2023-04-19T08:54:38;101323.66;;;27.28;22.09
41218;BME280;26950;50.960;7.138;2023-04-19T08:57:07;101324.00;;;28.30;21.19
41218;BME280;26950;50.960;7.138;2023-04-19T08:59:34;101320.56;;;27.40;21.71
41218;BME280;26950;50.960;7.138;2023-04-19T09:02:01;101320.06;;;27.57;21.97
41218;BME280;26950;50.960;7.138;2023-04-19T09:04:28;101326.03;;;26.07;22.84
41218;BME280;26950;50.960;7.138;2023-04-19T09:06:56;101312.00;;;25.94;23.29
41218;BME280;26950;50.960;7.138;2023-04-19T09:09:24;101310.03;;;26.02;23.85
41218;BME280;26950;50.960;7.138;2023-04-19T09:11:53;101321.66;;;25.64;23.61
41218;BME280;26950;50.960;7.138;2023-04-19T09:14:21;101309.69;;;24.97;24.42
41218;BME280;26950;50.960;7.138;2023-04-19T09:16:48;101315.97;;;23.97;25.01
41218;BME280;26950;50.960;7.138;2023-04-19T09:19:16;101305.56;;;24.30;24.68
41218;BME280;26950;50.960;7.138;2023-04-19T09:21:43;101308.75;;;23.40;25.73
41218;BME280;26950;50.960;7.138;2023-04-19T09:24:11;101305.09;;;23.48;26.31
41218;BME280;26950;50.960;7.138;2023-04-19T09:26:38;101313.59;;;24.33;25.56
41218;BME280;26950;50.960;7.138;2023-04-19T09:29:18;101300.75;;;25.40;24.12
41218;BME280;26950;50.960;7.138;2023-04-19T09:31:55;101299.03;;;26.12;23.36
41218;BME280;26950;50.960;7.138;2023-04-19T09:34:22;101301.44;;;26.22;22.75
41218;BME280;26950;50.960;7.138;2023-04-19T09:36:49;101297.94;;;25.44;22.88
41218;BME280;26950;50.960;7.138;2023-04-19T09:39:29;101299.34;;;25.22;23.84
41218;BME280;26950;50.960;7.138;2023-04-19T09:41:55;101293.72;;;25.34;23.53
41218;BME280;26950;50.960;7.138;2023-04-19T09:44:22;101294.38;;;25.82;23.55
41218;BME280;26950;50.960;7.138;2023-04-19T09:46:49;101291.63;;;25.45;23.55
41218;BME280;26950;50.960;7.138;2023-04-19T09:49:18;101299.44;;;25.95;22.23
41218;BME280;26950;50.960;7.138;2023-04-19T09:51:46;101287.53;;;27.03;21.49
41218;BME280;26950;50.960;7.138;2023-04-19T09:54:14;101286.94;;;27.52;20.87
41218;BME280;26950;50.960;7.138;2023-04-19T09:56:43;101275.38;;;28.05;20.20
41218;BME280;26950;50.960;7.138;2023-04-19T09:59:10;101267.44;;;28.00;20.16
41218;BME280;26950;50.960;7.138;2023-04-19T10:01:38;101278.66;;;27.60;19.88
41218;BME280;26950;50.960;7.138;2023-04-19T10:04:06;101274.41;;;27.51;20.46
41218;BME280;26950;50.960;7.138;2023-04-19T10:06:34;101255.97;;;26.78;21.33
41218;BME280;26950;50.960;7.138;2023-04-19T10:09:02;101267.09;;;26.66;21.28
41218;BME280;26950;50.960;7.138;2023-04-19T10:11:32;101260.78;;;26.33;21.71
41218;BME280;26950;50.960;7.138;2023-04-19T10:14:05;101258.06;;;26.98;21.42
41218;BME280;26950;50.960;7.138;2023-04-19T10:16:32;101265.38;;;27.54;20.64
41218;BME280;26950;50.960;7.138;2023-04-19T10:19:00;101244.44;;;27.03;20.19
41218;BME280;26950;50.960;7.138;2023-04-19T10:21:27;101254.09;;;27.95;19.94
41218;BME280;26950;50.960;7.138;2023-04-19T10:23:55;101249.38;;;28.29;19.96
41218;BME280;26950;50.960;7.138;2023-04-19T10:26:22;101251.34;;;27.71;19.38
41218;BME280;26950;50.960;7.138;2023-04-19T10:28:49;101251.63;;;27.04;20.50
41218;BME280;26950;50.960;7.138;2023-04-19T10:31:18;101243.03;;;26.60;21.27
41218;BME280;26950;50.960;7.138;2023-04-19T10:33:48;101239.69;;;25.06;22.41
41218;BME280;26950;50.960;7.138;2023-04-19T10:36:14;101245.22;;;25.77;22.31
41218;BME280;26950;50.960;7.138;2023-04-19T10:38:43;101244.34;;;24.55;22.33
41218;BME280;26950;50.960;7.138;2023-04-19T10:41:12;101250.00;;;25.63;22.42
41218;BME280;26950;50.960;7.138;2023-04-19T10:43:41;101244.00;;;25.15;22.29
41218;BME280;26950;50.960;7.138;2023-04-19T10:46:13;101254.53;;;25.24;22.99
41218;BME280;26950;50.960;7.138;2023-04-19T10:48:49;101248.94;;;24.91;22.32
41218;BME280;26950;50.960;7.138;2023-04-19T10:51:19;101238.88;;;25.01;22.32
41218;BME280;26950;50.960;7.138;2023-04-19T10:53:52;101247.22;;;24.87;22.56
41218;BME280;26950;50.960;7.138;2023-04-19T10:56:21;101235.75;;;24.81;22.51
41218;BME280;26950;50.960;7.138;2023-04-19T10:59:13;101247.06;;;24.96;22.83
41218;BME280;26950;50.960;7.138;2023-04-19T11:01:48;101238.03;;;24.56;22.50
41218;BME280;26950;50.960;7.138;2023-04-19T11:04:17;101233.34;;;24.19;23.21
41218;BME280;26950;50.960;7.138;2023-04-19T11:07:01;101239.59;;;24.67;23.13
41218;BME280;26950;50.960;7.138;2023-04-19T11:09:31;101229.91;;;24.12;23.18
41218;BME280;26950;50.960;7.138;2023-04-19T11:12:00;101233.44;;;23.62;23.69
41218;BME280;26950;50.960;7.138;2023-04-19T11:14:29;101236.09;;;22.25;24.10
41218;BME280;26950;50.960;7.138;2023-04-19T11:16:57;101231.69;;;22.98;23.94
41218;BME280;26950;50.960;7.138;2023-04-19T11:19:25;101229.97;;;22.92;24.10
41218;BME280;26950;50.960;7.138;2023-04-19T11:21:52;101236.38;;;22.79;24.13
41218;BME280;26950;50.960;7.138;2023-04-19T11:24:22;101225.13;;;22.51;23.88
41218;BME280;26950;50.960;7.138;2023-04-19T11:26:49;101227.66;;;22.63;23.83
41218;BME280;26950;50.960;7.138;2023-04-19T11:29:15;101221.50;;;21.64;23.77
41218;BME280;26950;50.960;7.138;2023-04-19T11:31:45;101225.03;;;21.66;23.32
41218;BME280;26950;50.960;7.138;2023-04-19T11:34:11;101215.75;;;22.10;24.02
41218;BME280;26950;50.960;7.138;2023-04-19T11:36:48;101215.50;;;21.28;23.96
41218;BME280;26950;50.960;7.138;2023-04-19T11:39:14;101214.59;;;21.34;25.36
41218;BME280;26950;50.960;7.138;2023-04-19T11:41:41;101210.91;;;21.50;23.08
41218;BME280;26950;50.960;7.138;2023-04-19T11:44:15;101206.59;;;21.28;23.62
41218;BME280;26950;50.960;7.138;2023-04-19T11:47:02;101202.81;;;21.63;23.64
41218;BME280;26950;50.960;7.138;2023-04-19T11:49:30;101206.56;;;21.39;23.80
41218;BME280;26950;50.960;7.138;2023-04-19T11:51:59;101210.16;;;21.30;23.55
41218;BME280;26950;50.960;7.138;2023-04-19T11:54:26;101206.50;;;21.43;23.31
41218;BME280;26950;50.960;7.138;2023-04-19T11:57:03;101203.94;;;21.33;23.25
41218;BME280;26950;50.960;7.138;2023-04-19T11:59:30;101201.25;;;21.30;22.81
41218;BME280;26950;50.960;7.138;2023-04-19T12:02:04;101204.19;;;20.87;23.12
41218;BME280;26950;50.960;7.138;2023-04-19T12:04:31;101199.00;;;20.39;23.42
41218;BME280;26950;50.960;7.138;2023-04-19T12:07:00;101204.25;;;20.67;23.38
41218;BME280;26950;50.960;7.138;2023-04-19T12:09:27;101199.91;;;20.46;23.03
41218;BME280;26950;50.960;7.138;2023-04-19T12:11:54;101197.22;;;20.47;23.62
41218;BME280;26950;50.960;7.138;2023-04-19T12:14:21;101175.13;;;20.06;23.21
41218;BME280;26950;50.960;7.138;2023-04-19T12:17:08;101185.72;;;20.15;22.96
41218;BME280;26950;50.960;7.138;2023-04-19T12:19:36;101183.94;;;20.20;23.51
41218;BME280;26950;50.960;7.138;2023-04-19T12:22:09;101183.09;;;19.97;22.58
41218;BME280;26950;50.960;7.138;2023-04-19T12:24:36;101178.72;;;19.80;23.07
41218;BME280;26950;50.960;7.138;2023-04-19T12:27:03;101172.44;;;20.12;24.06
41218;BME280;26950;50.960;7.138;2023-04-19T12:29:30;101175.13;;;20.06;23.83
41218;BME280;26950;50.960;7.138;2023-04-19T12:31:56;101177.78;;;20.03;23.43
41218;BME280;26950;50.960;7.138;2023-04-19T12:34:23;101184.03;;;19.86;23.59
41218;BME280;26950;50.960;7.138;2023-04-19T12:36:49;101176.03;;;19.83;23.92
41218;BME280;26950;50.960;7.138;2023-04-19T12:39:17;101169.81;;;19.84;23.61
41218;BME280;26950;50.960;7.138;2023-04-19T12:41:44;101163.59;;;19.94;22.86
41218;BME280;26950;50.960;7.138;2023-04-19T12:44:12;101172.47;;;19.95;23.49
41218;BME280;26950;50.960;7.138;2023-04-19T12:46:38;101160.91;;;19.26;24.35
41218;BME280;26950;50.960;7.138;2023-04-19T12:49:05;101152.06;;;19.25;23.81
41218;BME280;26950;50.960;7.138;2023-04-19T12:51:31;101164.47;;;19.45;23.73